createdAt,value
2023-05-07T00:00:01.925Z,7.14
2023-05-07T00:01:33.388Z,7.09
2023-05-07T00:03:05.021Z,7.50
2023-05-07T00:04:37.001Z,6.88
2023-05-07T00:06:09.928Z,6.85
2023-05-07T00:07:41.670Z,6.95
2023-05-07T00:09:13.746Z,6.80
2023-05-07T00:10:45.513Z,6.44
2023-05-07T00:12:17.846Z,6.50
2023-05-07T00:13:49.937Z,6.44
2023-05-07T00:15:22.792Z,6.70
2023-05-07T00:16:54.754Z,6.77
2023-05-07T00:18:26.395Z,6.75
2023-05-07T00:19:58.197Z,6.59
2023-05-07T00:21:29.527Z,6.66
2023-05-07T00:23:00.939Z,6.65
2023-05-07T00:24:32.435Z,6.93
2023-05-07T00:26:03.742Z,6.72
2023-05-07T00:27:35.533Z,6.77
2023-05-07T00:29:06.998Z,7.22
2023-05-07T00:30:43.604Z,6.60
2023-05-07T00:32:15.161Z,6.76
2023-05-07T00:33:46.853Z,6.67
2023-05-07T00:35:18.265Z,6.49
2023-05-07T00:36:49.611Z,6.97
2023-05-07T00:38:21.016Z,6.73
2023-05-07T00:39:52.325Z,6.87
2023-05-07T00:41:23.761Z,6.84
2023-05-07T00:42:55.066Z,7.05
2023-05-07T00:44:26.492Z,6.55
2023-05-07T00:45:57.833Z,6.99
2023-05-07T00:47:29.355Z,6.80
2023-05-07T00:49:00.748Z,6.81
2023-05-07T00:50:32.149Z,6.71
2023-05-07T00:52:03.523Z,6.71
2023-05-07T00:53:34.885Z,7.38
2023-05-07T00:55:06.167Z,6.85
2023-05-07T00:56:37.519Z,6.89
2023-05-07T00:58:09.063Z,7.19
2023-05-07T00:59:40.428Z,7.08
2023-05-07T01:01:11.748Z,7.06
2023-05-07T01:02:43.413Z,7.05
2023-05-07T01:04:15.271Z,7.45
2023-05-07T01:05:47.784Z,7.31
2023-05-07T01:07:19.732Z,7.36
2023-05-07T01:08:51.270Z,7.49
2023-05-07T01:10:22.591Z,7.43
2023-05-07T01:11:53.997Z,7.54
2023-05-07T01:13:25.341Z,7.69
2023-05-07T01:14:56.746Z,8.31
2023-05-07T01:16:28.449Z,7.76
2023-05-07T01:18:00.019Z,7.85
2023-05-07T01:19:31.593Z,7.75
2023-05-07T01:21:02.917Z,7.62
2023-05-07T01:22:34.343Z,7.88
2023-05-07T01:24:05.715Z,8.02
2023-05-07T01:25:37.035Z,7.34
2023-05-07T01:27:08.327Z,7.35
2023-05-07T01:28:40.429Z,7.70
2023-05-07T01:30:12.528Z,7.88
2023-05-07T01:31:44.377Z,7.31
2023-05-07T01:33:31.897Z,7.75
2023-05-07T01:35:03.237Z,7.66
2023-05-07T01:36:34.568Z,7.89
2023-05-07T01:38:05.873Z,7.83
2023-05-07T01:39:37.290Z,7.52
2023-05-07T01:41:08.700Z,7.37
2023-05-07T01:42:40.064Z,7.61
2023-05-07T01:44:11.437Z,7.80
2023-05-07T01:45:42.890Z,7.39
2023-05-07T01:47:19.315Z,7.32
2023-05-07T01:48:50.705Z,7.48
2023-05-07T01:50:22.124Z,7.64
2023-05-07T01:51:53.451Z,7.12
2023-05-07T01:53:24.777Z,7.03
2023-05-07T01:54:56.206Z,7.14
2023-05-07T01:56:27.637Z,7.05
2023-05-07T01:57:59.096Z,7.61
2023-05-07T01:59:35.624Z,7.88
2023-05-07T02:01:07.038Z,7.41
2023-05-07T02:03:07.999Z,7.34
2023-05-07T02:04:39.619Z,7.76
2023-05-07T02:06:16.677Z,7.99
2023-05-07T02:07:48.612Z,7.56
2023-05-07T02:09:20.738Z,7.45
2023-05-07T02:11:19.831Z,7.68
2023-05-07T02:12:51.517Z,8.00
2023-05-07T02:14:22.853Z,7.86
2023-05-07T02:16:29.641Z,7.87
2023-05-07T02:18:01.923Z,7.73
2023-05-07T02:19:38.919Z,7.31
2023-05-07T02:21:10.643Z,7.69
2023-05-07T02:22:42.463Z,7.64
2023-05-07T02:24:14.165Z,7.42
2023-05-07T02:25:45.799Z,7.10
2023-05-07T02:27:17.452Z,7.30
2023-05-07T02:28:49.106Z,7.43
2023-05-07T02:30:20.807Z,6.99
2023-05-07T02:31:52.155Z,7.11
2023-05-07T02:33:23.544Z,7.33
2023-05-07T02:34:56.098Z,7.20
2023-05-07T02:36:27.559Z,7.07
2023-05-07T02:37:59.170Z,7.26
2023-05-07T02:39:30.492Z,7.20
2023-05-07T02:41:01.891Z,7.71
2023-05-07T02:42:33.202Z,8.90
2023-05-07T02:44:04.508Z,8.33
2023-05-07T02:45:35.861Z,8.34
2023-05-07T02:47:07.341Z,7.92
2023-05-07T02:48:38.675Z,7.70
2023-05-07T02:50:10.161Z,7.52
2023-05-07T02:51:41.701Z,7.66
2023-05-07T02:53:13.080Z,7.68
2023-05-07T02:54:44.456Z,7.76
2023-05-07T02:56:15.845Z,7.85
2023-05-07T02:57:47.173Z,8.02
2023-05-07T02:59:18.575Z,8.45
2023-05-07T03:00:50.263Z,8.56
2023-05-07T03:02:21.676Z,8.99
2023-05-07T03:03:53.095Z,8.88
2023-05-07T03:05:24.544Z,8.96
2023-05-07T03:06:55.923Z,9.48
2023-05-07T03:08:27.489Z,9.31
2023-05-07T03:09:58.806Z,10.47
2023-05-07T03:11:30.184Z,9.75
2023-05-07T03:13:01.841Z,10.48
2023-05-07T03:14:33.303Z,10.62
2023-05-07T03:16:04.689Z,10.35
2023-05-07T03:17:36.345Z,10.70
2023-05-07T03:19:08.030Z,10.18
2023-05-07T03:20:40.249Z,11.07
2023-05-07T03:22:11.573Z,11.79
2023-05-07T03:23:42.889Z,11.85
2023-05-07T03:25:14.329Z,11.90
2023-05-07T03:26:45.770Z,11.47
2023-05-07T03:28:17.247Z,11.55
2023-05-07T03:29:48.642Z,11.54
2023-05-07T03:31:20.230Z,11.98
2023-05-07T03:32:51.657Z,12.07
2023-05-07T03:34:23.413Z,12.35
2023-05-07T03:35:54.950Z,12.31
2023-05-07T03:37:26.288Z,11.73
2023-05-07T03:38:57.872Z,11.63
2023-05-07T03:40:29.835Z,12.03
2023-05-07T03:42:01.565Z,11.77
2023-05-07T03:43:32.969Z,11.79
2023-05-07T03:45:04.297Z,12.10
2023-05-07T03:46:35.964Z,12.01
2023-05-07T03:48:07.529Z,11.46
2023-05-07T03:49:39.004Z,11.47
2023-05-07T03:51:10.463Z,11.49
2023-05-07T03:52:41.829Z,11.41
2023-05-07T03:54:13.282Z,11.24
2023-05-07T03:55:44.842Z,11.07
2023-05-07T03:57:16.272Z,11.36
2023-05-07T03:58:48.028Z,11.09
2023-05-07T04:00:19.605Z,10.89
2023-05-07T04:01:50.994Z,11.13
2023-05-07T04:03:22.517Z,11.02
2023-05-07T04:04:54.009Z,11.10
2023-05-07T04:06:25.456Z,10.98
2023-05-07T04:07:56.988Z,10.76
2023-05-07T04:09:28.340Z,10.99
2023-05-07T04:11:01.116Z,10.83
2023-05-07T04:12:32.875Z,10.65
2023-05-07T04:14:04.221Z,11.00
2023-05-07T04:15:35.544Z,11.11
2023-05-07T04:17:06.830Z,11.25
2023-05-07T04:18:38.164Z,10.68
2023-05-07T04:20:10.032Z,11.04
2023-05-07T04:21:41.663Z,11.09
2023-05-07T04:23:13.127Z,10.92
2023-05-07T04:24:44.471Z,10.84
2023-05-07T04:26:16.056Z,10.95
2023-05-07T04:27:47.417Z,10.44
2023-05-07T04:29:18.794Z,10.48
2023-05-07T04:30:50.186Z,10.71
2023-05-07T04:32:21.805Z,10.84
2023-05-07T04:33:53.185Z,11.00
2023-05-07T04:35:24.694Z,10.94
2023-05-07T04:36:56.080Z,10.81
2023-05-07T04:38:27.445Z,10.67
2023-05-07T04:39:58.849Z,10.34
2023-05-07T04:41:30.285Z,10.25
2023-05-07T04:43:01.841Z,10.47
2023-05-07T04:44:33.166Z,10.24
2023-05-07T04:46:04.506Z,10.19
2023-05-07T04:47:35.928Z,10.27
2023-05-07T04:49:07.265Z,9.81
2023-05-07T04:50:38.579Z,9.94
2023-05-07T04:52:09.951Z,9.74
2023-05-07T04:53:41.373Z,10.26
2023-05-07T04:55:12.637Z,10.07
2023-05-07T04:56:43.991Z,10.17
2023-05-07T04:58:15.299Z,9.89
2023-05-07T04:59:46.631Z,9.96
2023-05-07T05:01:17.966Z,9.95
2023-05-07T05:02:49.532Z,9.98
2023-05-07T05:04:21.446Z,9.80
2023-05-07T05:05:52.961Z,9.94
2023-05-07T05:07:24.459Z,9.44
2023-05-07T05:08:55.977Z,9.36
2023-05-07T05:10:27.578Z,9.34
2023-05-07T05:11:58.916Z,9.44
2023-05-07T05:13:30.359Z,9.25
2023-05-07T05:15:01.643Z,9.20
2023-05-07T05:16:33.155Z,9.07
2023-05-07T05:18:04.736Z,8.82
2023-05-07T05:19:36.450Z,8.54
2023-05-07T05:21:07.757Z,8.73
2023-05-07T05:22:39.098Z,8.65
2023-05-07T05:24:10.497Z,8.81
2023-05-07T05:25:41.983Z,8.72
2023-05-07T05:27:18.483Z,8.47
2023-05-07T05:28:49.795Z,9.41
2023-05-07T05:30:23.108Z,7.90
2023-05-07T05:31:54.793Z,7.73
2023-05-07T05:33:26.496Z,7.44
2023-05-07T05:34:57.953Z,7.39
2023-05-07T05:36:29.443Z,7.67
2023-05-07T05:38:00.788Z,7.46
2023-05-07T05:39:32.352Z,7.27
2023-05-07T05:41:03.727Z,7.23
2023-05-07T05:42:35.173Z,7.22
2023-05-07T05:44:06.569Z,7.15
2023-05-07T05:45:38.027Z,6.66
2023-05-07T05:47:09.392Z,6.19
2023-05-07T05:48:40.805Z,6.12
2023-05-07T05:50:12.369Z,5.77
2023-05-07T05:51:48.998Z,5.98
2023-05-07T05:53:20.335Z,5.81
2023-05-07T05:54:51.996Z,5.93
2023-05-07T05:56:23.479Z,5.69
2023-05-07T05:57:55.045Z,5.58
2023-05-07T05:59:26.487Z,5.55
2023-05-07T06:00:57.949Z,5.43
2023-05-07T06:02:29.365Z,5.29
2023-05-07T06:04:00.817Z,5.17
2023-05-07T06:05:32.155Z,5.13
2023-05-07T06:07:03.578Z,5.24
2023-05-07T06:08:55.248Z,5.20
2023-05-07T06:10:26.842Z,5.13
2023-05-07T06:12:00.566Z,4.86
2023-05-07T06:13:42.432Z,4.94
2023-05-07T06:15:13.765Z,4.96
2023-05-07T06:16:45.321Z,4.81
2023-05-07T06:18:16.847Z,4.78
2023-05-07T06:19:48.485Z,4.76
2023-05-07T06:21:19.864Z,4.80
2023-05-07T06:22:51.384Z,4.69
2023-05-07T06:24:22.778Z,4.42
2023-05-07T06:25:54.456Z,4.18
2023-05-07T06:27:25.929Z,3.91
2023-05-07T06:28:57.422Z,3.84
2023-05-07T06:30:28.842Z,3.69
2023-05-07T06:32:06.942Z,3.71
2023-05-07T06:33:48.641Z,3.53
2023-05-07T06:35:20.086Z,3.82
2023-05-07T06:36:51.617Z,3.88
2023-05-07T06:38:22.948Z,3.66
2023-05-07T06:39:54.277Z,3.75
2023-05-07T06:41:25.667Z,3.71
2023-05-07T06:42:57.186Z,3.47
2023-05-07T06:44:28.567Z,3.65
2023-05-07T06:45:59.940Z,3.34
2023-05-07T06:47:31.400Z,3.50
2023-05-07T06:49:02.819Z,3.41
2023-05-07T06:50:34.356Z,3.81
2023-05-07T06:52:05.942Z,3.41
2023-05-07T06:53:37.444Z,3.56
2023-05-07T06:55:09.172Z,3.31
2023-05-07T06:56:40.540Z,3.26
2023-05-07T06:58:11.954Z,3.40
2023-05-07T06:59:43.545Z,3.52
2023-05-07T07:01:20.130Z,3.34
2023-05-07T07:02:51.665Z,3.45
2023-05-07T07:04:28.374Z,3.37
2023-05-07T07:06:00.157Z,3.26
2023-05-07T07:07:31.751Z,3.20
2023-05-07T07:09:03.124Z,3.14
2023-05-07T07:10:34.510Z,3.08
2023-05-07T07:12:06.290Z,3.28
2023-05-07T07:13:42.834Z,3.00
2023-05-07T07:15:14.285Z,2.92
2023-05-07T07:16:45.897Z,2.88
2023-05-07T07:18:17.392Z,2.64
2023-05-07T07:19:48.860Z,2.70
2023-05-07T07:21:20.791Z,2.85
2023-05-07T07:22:52.276Z,2.75
2023-05-07T07:24:23.743Z,2.90
2023-05-07T07:25:55.269Z,2.91
2023-05-07T07:27:28.699Z,3.12
2023-05-07T07:29:00.157Z,2.90
2023-05-07T07:30:31.735Z,3.21
2023-05-07T07:32:03.769Z,3.15
2023-05-07T07:33:36.759Z,3.06
2023-05-07T07:35:08.399Z,3.07
2023-05-07T07:36:46.364Z,3.27
2023-05-07T07:38:18.698Z,3.48
2023-05-07T07:39:51.502Z,3.59
2023-05-07T07:41:22.915Z,3.70
2023-05-07T07:42:54.603Z,3.62
2023-05-07T07:44:26.418Z,3.39
2023-05-07T07:45:57.977Z,3.43
2023-05-07T07:47:29.523Z,3.29
2023-05-07T07:49:01.364Z,3.41
2023-05-07T07:50:44.668Z,3.46
2023-05-07T07:52:37.244Z,3.31
2023-05-07T07:54:08.838Z,3.29
2023-05-07T07:55:40.450Z,3.24
2023-05-07T07:57:12.118Z,3.18
2023-05-07T07:58:43.801Z,3.08
2023-05-07T08:00:15.205Z,2.93
2023-05-07T08:01:48.961Z,3.08
2023-05-07T08:03:30.693Z,3.47
2023-05-07T08:05:02.236Z,3.36
2023-05-07T08:06:33.945Z,3.34
2023-05-07T08:08:05.616Z,3.62
2023-05-07T08:09:37.196Z,4.09
2023-05-07T08:11:09.124Z,3.84
2023-05-07T08:12:40.952Z,3.50
2023-05-07T08:14:12.552Z,3.65
2023-05-07T08:15:44.076Z,3.55
2023-05-07T08:17:20.965Z,3.66
2023-05-07T08:18:53.137Z,3.65
2023-05-07T08:20:24.875Z,3.39
2023-05-07T08:21:56.839Z,3.74
2023-05-07T08:23:28.717Z,3.92
2023-05-07T08:25:00.343Z,4.16
2023-05-07T08:26:31.916Z,3.93
2023-05-07T08:28:03.666Z,3.88
2023-05-07T08:29:35.450Z,4.02
2023-05-07T08:31:07.292Z,4.12
2023-05-07T08:32:38.891Z,4.27
2023-05-07T08:34:15.801Z,4.08
2023-05-07T08:35:48.344Z,4.22
2023-05-07T08:37:20.042Z,4.00
2023-05-07T08:38:52.694Z,3.88
2023-05-07T08:40:24.273Z,3.80
2023-05-07T08:41:55.877Z,3.91
2023-05-07T08:43:27.521Z,3.87
2023-05-07T08:44:59.029Z,4.14
2023-05-07T08:46:30.597Z,4.14
2023-05-07T08:48:02.975Z,4.22
2023-05-07T08:49:34.656Z,4.48
2023-05-07T08:51:06.429Z,4.99
2023-05-07T08:52:38.264Z,4.79
2023-05-07T08:54:09.942Z,4.82
2023-05-07T08:55:41.573Z,4.84
2023-05-07T08:57:13.043Z,4.98
2023-05-07T08:58:44.783Z,4.98
2023-05-07T09:00:16.441Z,4.93
2023-05-07T09:01:48.216Z,4.65
2023-05-07T09:03:20.033Z,4.93
2023-05-07T09:04:51.730Z,4.97
2023-05-07T09:06:23.345Z,4.70
2023-05-07T09:08:00.065Z,5.11
2023-05-07T09:09:31.552Z,5.13
2023-05-07T09:11:03.125Z,5.55
2023-05-07T09:12:35.218Z,5.66
2023-05-07T09:14:07.589Z,6.08
2023-05-07T09:15:41.317Z,5.61
2023-05-07T09:17:18.023Z,5.41
2023-05-07T09:18:50.028Z,5.07
2023-05-07T09:20:21.551Z,5.50
2023-05-07T09:21:53.046Z,5.90
2023-05-07T09:23:24.685Z,5.69
2023-05-07T09:24:56.407Z,5.96
2023-05-07T09:26:28.088Z,6.26
2023-05-07T09:27:59.598Z,6.43
2023-05-07T09:29:31.280Z,6.58
2023-05-07T09:31:03.410Z,6.67
2023-05-07T09:32:34.984Z,6.79
2023-05-07T09:34:06.664Z,6.86
2023-05-07T09:35:38.071Z,6.97
2023-05-07T09:37:09.478Z,7.48
2023-05-07T09:38:41.020Z,7.33
2023-05-07T09:40:12.435Z,6.98
2023-05-07T09:41:43.850Z,6.97
2023-05-07T09:43:15.346Z,7.58
2023-05-07T09:44:46.763Z,7.30
2023-05-07T09:46:18.413Z,7.45
2023-05-07T09:47:50.185Z,7.62
2023-05-07T09:49:21.655Z,7.78
2023-05-07T09:50:53.043Z,7.26
2023-05-07T09:52:24.433Z,7.26
2023-05-07T09:53:55.891Z,7.08
2023-05-07T09:55:27.316Z,6.84
2023-05-07T09:56:58.909Z,6.97
2023-05-07T09:58:30.282Z,7.14
2023-05-07T10:00:01.684Z,7.02
2023-05-07T10:01:33.600Z,6.70
2023-05-07T10:03:05.554Z,6.15
2023-05-07T10:04:37.402Z,6.23
2023-05-07T10:06:08.774Z,6.96
2023-05-07T10:07:41.136Z,7.53
2023-05-07T10:09:12.598Z,7.83
2023-05-07T10:10:44.093Z,7.13
2023-05-07T10:12:15.733Z,6.91
2023-05-07T10:13:47.231Z,6.17
2023-05-07T10:15:33.801Z,6.75
2023-05-07T10:17:05.329Z,6.05
2023-05-07T10:18:36.890Z,5.55
2023-05-07T10:20:08.682Z,5.24
2023-05-07T10:21:40.272Z,5.33
2023-05-07T10:23:11.672Z,5.46
2023-05-07T10:24:43.147Z,5.45
2023-05-07T10:26:14.824Z,4.85
2023-05-07T10:27:50.303Z,4.37
2023-05-07T10:29:22.000Z,4.58
2023-05-07T10:30:53.715Z,4.40
2023-05-07T10:32:25.290Z,4.72
2023-05-07T10:34:00.647Z,5.43
2023-05-07T10:35:32.198Z,5.59
2023-05-07T10:37:03.601Z,5.20
2023-05-07T10:38:35.038Z,4.71
2023-05-07T10:40:06.644Z,4.64
2023-05-07T10:41:38.112Z,4.01
2023-05-07T10:43:11.124Z,3.99
2023-05-07T10:44:42.746Z,3.38
2023-05-07T10:46:14.243Z,3.28
2023-05-07T10:47:45.840Z,3.83
2023-05-07T10:49:17.867Z,3.85
2023-05-07T10:50:49.604Z,3.56
2023-05-07T10:52:21.471Z,3.45
2023-05-07T10:53:53.131Z,4.00
2023-05-07T10:55:24.573Z,3.71
2023-05-07T10:57:01.660Z,3.87
2023-05-07T10:58:33.469Z,3.67
2023-05-07T11:00:05.151Z,3.75
2023-05-07T11:01:36.797Z,3.58
2023-05-07T11:03:09.352Z,3.49
2023-05-07T11:04:41.464Z,3.24
2023-05-07T11:06:15.403Z,3.47
2023-05-07T11:07:46.959Z,3.33
2023-05-07T11:09:18.400Z,3.44
2023-05-07T11:10:49.836Z,3.75
2023-05-07T11:12:22.419Z,3.77
2023-05-07T11:13:54.308Z,4.70
2023-05-07T11:15:26.013Z,4.42
2023-05-07T11:16:57.560Z,4.23
2023-05-07T11:18:29.174Z,4.15
2023-05-07T11:20:00.684Z,4.77
2023-05-07T11:21:32.288Z,5.14
2023-05-07T11:23:03.702Z,5.50
2023-05-07T11:24:35.677Z,6.16
2023-05-07T11:26:07.230Z,5.82
2023-05-07T11:27:38.775Z,5.69
2023-05-07T11:29:10.727Z,6.03
2023-05-07T11:30:42.299Z,6.09
2023-05-07T11:32:13.846Z,5.99
2023-05-07T11:33:45.380Z,6.43
2023-05-07T11:35:17.199Z,6.57
2023-05-07T11:36:48.798Z,6.21
2023-05-07T11:38:20.361Z,5.86
2023-05-07T11:39:51.943Z,5.78
2023-05-07T11:41:23.660Z,5.60
2023-05-07T11:42:55.317Z,5.90
2023-05-07T11:44:26.753Z,5.89
2023-05-07T11:45:58.268Z,5.79
2023-05-07T11:47:30.092Z,5.96
2023-05-07T11:49:01.663Z,5.89
2023-05-07T11:50:33.844Z,6.88
2023-05-07T11:52:06.701Z,6.78
2023-05-07T11:53:38.619Z,6.51
2023-05-07T11:55:10.293Z,6.71
2023-05-07T11:56:42.022Z,6.61
2023-05-07T11:58:13.585Z,6.19
2023-05-07T11:59:46.938Z,6.79
2023-05-07T12:01:18.393Z,6.48
2023-05-07T12:02:49.902Z,6.37
2023-05-07T12:04:21.987Z,6.16
2023-05-07T12:05:53.722Z,5.85
2023-05-07T12:07:45.237Z,5.82
2023-05-07T12:09:17.251Z,5.38
2023-05-07T12:10:49.369Z,4.83
2023-05-07T12:12:20.920Z,4.82
2023-05-07T12:13:52.531Z,4.77
2023-05-07T12:15:24.610Z,4.54
2023-05-07T12:16:56.357Z,4.43
2023-05-07T12:18:28.091Z,3.97
2023-05-07T12:19:59.604Z,3.95
2023-05-07T12:21:32.063Z,4.19
2023-05-07T12:23:03.517Z,3.95
2023-05-07T12:24:35.551Z,3.84
2023-05-07T12:26:07.810Z,4.01
2023-05-07T12:27:40.238Z,4.27
2023-05-07T12:29:11.835Z,4.68
2023-05-07T12:30:43.588Z,4.94
2023-05-07T12:32:15.106Z,5.39
2023-05-07T12:33:46.669Z,5.39
2023-05-07T12:35:18.443Z,5.23
2023-05-07T12:36:50.161Z,5.00
2023-05-07T12:38:21.618Z,5.41
2023-05-07T12:39:53.075Z,5.80
2023-05-07T12:41:24.718Z,5.99
2023-05-07T12:42:56.161Z,6.66
2023-05-07T12:44:27.687Z,6.17
2023-05-07T12:45:59.288Z,6.04
2023-05-07T12:47:30.873Z,6.22
2023-05-07T12:49:02.474Z,5.63
2023-05-07T12:50:35.181Z,5.55
2023-05-07T12:52:07.100Z,5.05
2023-05-07T12:55:42.185Z,4.49
2023-05-07T12:57:23.887Z,4.16
2023-05-07T12:59:11.058Z,4.10
2023-05-07T13:01:04.177Z,4.11
2023-05-07T13:02:35.826Z,4.18
2023-05-07T13:04:07.689Z,3.87
2023-05-07T13:05:39.387Z,3.51
2023-05-07T13:07:10.898Z,3.83
2023-05-07T13:08:42.822Z,3.74
2023-05-07T13:10:14.721Z,3.94
2023-05-07T13:11:46.319Z,3.90
2023-05-07T13:13:18.006Z,3.67
2023-05-07T13:14:49.775Z,3.71
2023-05-07T13:16:22.268Z,3.64
2023-05-07T13:17:54.223Z,3.37
2023-05-07T13:19:25.765Z,3.57
2023-05-07T13:20:57.206Z,3.80
2023-05-07T13:22:28.797Z,4.38
2023-05-07T13:24:00.337Z,4.15
2023-05-07T13:25:31.886Z,3.77
2023-05-07T13:27:03.286Z,4.52
2023-05-07T13:28:34.746Z,4.47
2023-05-07T13:30:06.189Z,4.50
2023-05-07T13:31:37.797Z,4.25
2023-05-07T13:33:09.739Z,4.59
2023-05-07T13:34:41.156Z,4.56
2023-05-07T13:36:12.665Z,4.48
2023-05-07T13:37:44.108Z,4.29
2023-05-07T13:39:15.555Z,4.29
2023-05-07T13:40:47.152Z,4.06
2023-05-07T13:42:18.580Z,4.13
2023-05-07T13:43:50.119Z,4.08
2023-05-07T13:45:22.181Z,3.94
2023-05-07T13:46:53.683Z,3.70
2023-05-07T13:48:25.180Z,4.39
2023-05-07T13:49:58.350Z,4.28
2023-05-07T13:51:29.943Z,4.32
2023-05-07T13:53:01.395Z,4.16
2023-05-07T13:54:33.028Z,4.13
2023-05-07T13:56:04.572Z,4.10
2023-05-07T13:57:36.231Z,4.11
2023-05-07T13:59:07.606Z,4.52
2023-05-07T14:00:44.125Z,4.64
2023-05-07T14:02:15.653Z,4.90
2023-05-07T14:03:47.234Z,5.01
2023-05-07T14:05:18.837Z,4.92
2023-05-07T14:06:50.388Z,4.87
2023-05-07T14:08:21.828Z,5.02
2023-05-07T14:09:53.284Z,4.99
2023-05-07T14:11:24.686Z,4.87
2023-05-07T14:12:56.331Z,4.81
2023-05-07T14:14:27.789Z,4.83
2023-05-07T14:15:59.232Z,4.98
2023-05-07T14:17:30.813Z,4.98
2023-05-07T14:19:02.697Z,5.03
2023-05-07T14:20:34.132Z,5.49
2023-05-07T14:22:05.509Z,5.43
2023-05-07T14:23:36.951Z,5.83
2023-05-07T14:25:08.446Z,5.74
2023-05-07T14:26:39.983Z,6.20
2023-05-07T14:28:11.501Z,6.26
2023-05-07T14:29:42.964Z,6.47
2023-05-07T14:31:14.908Z,6.52
2023-05-07T14:32:46.713Z,6.22
2023-05-07T14:34:18.200Z,6.28
2023-05-07T14:35:50.732Z,6.54
2023-05-07T14:37:22.363Z,6.79
2023-05-07T14:38:53.821Z,6.70
2023-05-07T14:40:25.300Z,6.63
2023-05-07T14:41:57.049Z,6.59
2023-05-07T14:43:28.471Z,6.31
2023-05-07T14:45:00.005Z,6.53
2023-05-07T14:46:31.478Z,6.79
2023-05-07T14:48:02.972Z,6.67
2023-05-07T14:49:34.448Z,6.37
2023-05-07T14:51:05.829Z,6.79
2023-05-07T14:52:37.490Z,7.00
2023-05-07T14:54:08.963Z,6.77
2023-05-07T14:55:40.546Z,6.33
2023-05-07T14:57:12.094Z,6.45
2023-05-07T14:58:43.606Z,6.04
2023-05-07T15:00:15.105Z,6.00
2023-05-07T15:01:48.462Z,5.49
2023-05-07T15:03:20.011Z,5.19
2023-05-07T15:04:51.636Z,4.78
2023-05-07T15:06:23.066Z,4.84
2023-05-07T15:07:57.517Z,4.97
2023-05-07T15:09:29.257Z,4.61
2023-05-07T15:11:01.319Z,4.48
2023-05-07T15:12:32.804Z,4.60
2023-05-07T15:14:04.191Z,4.70
2023-05-07T15:15:35.878Z,3.96
2023-05-07T15:17:08.635Z,3.91
2023-05-07T15:18:40.182Z,3.71
2023-05-07T15:20:11.792Z,3.96
2023-05-07T15:21:43.226Z,3.54
2023-05-07T15:23:14.653Z,3.25
2023-05-07T15:24:46.071Z,3.54
2023-05-07T15:26:17.575Z,3.43
2023-05-07T15:27:49.001Z,3.10
2023-05-07T15:29:21.504Z,2.80
2023-05-07T15:30:55.053Z,2.96
2023-05-07T15:32:27.707Z,2.96
2023-05-07T15:33:59.388Z,2.65
2023-05-07T15:35:31.576Z,2.86
2023-05-07T15:37:03.893Z,2.72
2023-05-07T15:38:35.406Z,2.65
2023-05-07T15:40:06.810Z,2.81
2023-05-07T15:41:38.512Z,2.81
2023-05-07T15:43:09.956Z,3.13
2023-05-07T15:44:41.858Z,3.85
2023-05-07T15:46:17.721Z,3.22
2023-05-07T15:47:49.369Z,2.90
2023-05-07T15:49:20.998Z,2.91
2023-05-07T15:50:52.941Z,2.84
2023-05-07T15:52:24.538Z,3.31
2023-05-07T15:53:56.025Z,2.89
2023-05-07T15:55:27.439Z,3.12
2023-05-07T15:56:58.837Z,3.23
2023-05-07T15:58:30.256Z,2.80
2023-05-07T16:00:01.865Z,3.09
2023-05-07T16:01:33.352Z,3.41
2023-05-07T16:03:05.013Z,3.10
2023-05-07T16:04:36.648Z,3.07
2023-05-07T16:06:08.176Z,3.23
2023-05-07T16:07:39.957Z,3.16
2023-05-07T16:09:26.341Z,3.33
2023-05-07T16:10:58.041Z,3.13
2023-05-07T16:12:29.646Z,3.45
2023-05-07T16:14:01.112Z,3.27
2023-05-07T16:15:32.642Z,3.21
2023-05-07T16:17:04.102Z,3.26
2023-05-07T16:18:45.644Z,3.42
2023-05-07T16:20:18.142Z,3.18
2023-05-07T16:21:49.602Z,3.18
2023-05-07T16:23:21.089Z,3.25
2023-05-07T16:24:52.691Z,3.00
2023-05-07T16:26:24.087Z,2.98
2023-05-07T16:27:55.590Z,3.23
2023-05-07T16:29:27.154Z,3.17
2023-05-07T16:30:58.640Z,3.03
2023-05-07T16:32:30.687Z,3.20
2023-05-07T16:34:03.489Z,3.31
2023-05-07T16:35:35.022Z,3.62
2023-05-07T16:37:06.550Z,3.12
2023-05-07T16:38:38.057Z,3.51
2023-05-07T16:40:09.451Z,3.43
2023-05-07T16:41:40.991Z,3.51
2023-05-07T16:43:12.384Z,3.68
2023-05-07T16:44:43.785Z,3.43
2023-05-07T16:46:15.282Z,3.40
2023-05-07T16:47:47.086Z,3.66
2023-05-07T16:49:18.617Z,3.52
2023-05-07T16:50:50.607Z,3.71
2023-05-07T16:52:23.209Z,3.38
2023-05-07T16:53:54.701Z,3.55
2023-05-07T16:55:26.259Z,3.33
2023-05-07T16:56:57.664Z,3.36
2023-05-07T16:58:29.235Z,3.23
2023-05-07T17:00:00.957Z,3.13
2023-05-07T17:01:32.570Z,2.95
2023-05-07T17:03:04.354Z,3.21
2023-05-07T17:04:35.917Z,3.02
2023-05-07T17:06:07.409Z,3.15
2023-05-07T17:07:39.320Z,2.91
2023-05-07T17:09:10.744Z,2.77
2023-05-07T17:10:42.242Z,2.82
2023-05-07T17:12:14.854Z,2.88
2023-05-07T17:13:46.591Z,2.72
2023-05-07T17:15:18.031Z,2.70
2023-05-07T17:16:49.712Z,2.77
2023-05-07T17:18:21.066Z,2.71
2023-05-07T17:19:52.661Z,2.52
2023-05-07T17:21:24.057Z,2.61
2023-05-07T17:22:55.564Z,2.68
2023-05-07T17:24:27.307Z,2.70
2023-05-07T17:25:58.840Z,2.40
2023-05-07T17:27:30.489Z,2.52
2023-05-07T17:29:01.932Z,2.37
2023-05-07T17:30:33.730Z,2.34
2023-05-07T17:32:06.358Z,2.48
2023-05-07T17:33:39.738Z,2.70
2023-05-07T17:35:11.297Z,2.56
2023-05-07T17:36:42.889Z,2.47
2023-05-07T17:38:14.254Z,2.38
2023-05-07T17:39:45.656Z,2.27
2023-05-07T17:41:17.029Z,2.42
2023-05-07T17:42:48.537Z,2.57
2023-05-07T17:44:20.272Z,2.33
2023-05-07T17:45:51.872Z,2.61
2023-05-07T17:47:23.358Z,2.40
2023-05-07T17:48:54.846Z,2.32
2023-05-07T17:50:26.205Z,2.27
2023-05-07T17:52:02.600Z,2.29
2023-05-07T17:53:34.088Z,2.60
2023-05-07T17:55:05.464Z,2.28
2023-05-07T17:56:46.871Z,2.26
2023-05-07T17:58:23.451Z,2.43
2023-05-07T17:59:54.930Z,2.34
2023-05-07T18:01:31.411Z,2.40
2023-05-07T18:03:13.344Z,2.40
2023-05-07T18:04:45.014Z,2.45
2023-05-07T18:06:16.396Z,2.61
2023-05-07T18:07:47.792Z,2.57
2023-05-07T18:09:19.239Z,2.74
2023-05-07T18:10:50.614Z,2.87
2023-05-07T18:12:22.083Z,2.76
2023-05-07T18:13:58.449Z,2.86
2023-05-07T18:15:30.133Z,2.66
2023-05-07T18:17:11.839Z,2.78
2023-05-07T18:18:43.273Z,2.82
2023-05-07T18:20:14.781Z,3.04
2023-05-07T18:21:46.272Z,2.85
2023-05-07T18:23:17.694Z,2.64
2023-05-07T18:24:49.175Z,2.70
2023-05-07T18:26:20.639Z,2.56
2023-05-07T18:27:52.054Z,2.57
2023-05-07T18:29:23.663Z,2.69
2023-05-07T18:31:53.070Z,2.30
2023-05-07T18:33:24.446Z,2.79
2023-05-07T18:35:01.031Z,2.96
2023-05-07T18:36:37.451Z,2.90
2023-05-07T18:38:08.915Z,2.88
2023-05-07T18:39:50.336Z,2.75
2023-05-07T18:41:21.791Z,2.83
2023-05-07T18:42:53.252Z,2.82
2023-05-07T18:44:24.839Z,3.27
2023-05-07T18:45:56.424Z,3.01
2023-05-07T18:47:41.646Z,2.88
2023-05-07T18:49:30.132Z,2.93
2023-05-07T18:51:01.853Z,3.07
2023-05-07T18:52:43.304Z,3.23
2023-05-07T18:54:18.448Z,3.19
2023-05-07T18:56:03.717Z,3.11
2023-05-07T18:57:35.337Z,3.19
2023-05-07T18:59:06.737Z,3.70
2023-05-07T19:00:38.146Z,4.83
2023-05-07T19:02:14.620Z,3.86
2023-05-07T19:03:45.975Z,3.95
2023-05-07T19:05:17.458Z,3.54
2023-05-07T19:07:08.796Z,3.96
2023-05-07T19:08:40.285Z,3.67
2023-05-07T19:10:11.797Z,3.59
2023-05-07T19:11:43.299Z,3.88
2023-05-07T19:13:14.793Z,3.80
2023-05-07T19:14:46.309Z,3.87
2023-05-07T19:16:33.353Z,3.81
2023-05-07T19:18:26.584Z,3.73
2023-05-07T19:19:58.530Z,4.09
2023-05-07T19:21:30.028Z,4.37
2023-05-07T19:23:01.513Z,4.34
2023-05-07T19:24:35.621Z,4.37
2023-05-07T19:26:07.002Z,4.40
2023-05-07T19:27:48.548Z,4.58
2023-05-07T19:29:45.386Z,4.89
2023-05-07T19:31:17.116Z,5.00
2023-05-07T19:33:21.161Z,5.18
2023-05-07T19:34:52.781Z,5.47
2023-05-07T19:36:29.315Z,5.37
2023-05-07T19:38:00.673Z,5.67
2023-05-07T19:39:59.043Z,5.68
2023-05-07T19:41:35.414Z,5.66
2023-05-07T19:43:11.781Z,6.12
2023-05-07T19:44:43.146Z,6.82
2023-05-07T19:46:14.524Z,7.56
2023-05-07T19:47:46.050Z,7.66
2023-05-07T19:49:17.455Z,8.22
2023-05-07T19:50:48.806Z,8.51
2023-05-07T19:52:30.190Z,8.71
2023-05-07T19:54:02.195Z,9.10
2023-05-07T19:55:33.594Z,9.08
2023-05-07T19:57:15.503Z,9.43
2023-05-07T19:58:57.034Z,9.54
2023-05-07T20:00:28.567Z,9.74
2023-05-07T20:02:20.029Z,9.95
2023-05-07T20:03:51.559Z,9.68
2023-05-07T20:05:28.307Z,9.93
2023-05-07T20:07:29.709Z,9.58
2023-05-07T20:09:06.132Z,9.77
2023-05-07T20:10:37.617Z,9.95
2023-05-07T20:12:24.174Z,9.90
2023-05-07T20:14:30.481Z,9.77
2023-05-07T20:16:12.794Z,10.14
2023-05-07T20:17:44.340Z,10.48
2023-05-07T20:19:32.563Z,10.42
2023-05-07T20:21:27.347Z,10.09
2023-05-07T20:23:21.357Z,10.47
2023-05-07T20:25:07.143Z,10.35
2023-05-07T20:26:38.487Z,10.50
2023-05-07T20:28:10.451Z,11.47
2023-05-07T20:29:42.036Z,11.15
2023-05-07T20:31:13.487Z,11.26
2023-05-07T20:32:45.008Z,11.19